Airfield :
LOGIN :

Register | Disclaimer

   EN    FR    IT 

 










Legend :    VFR   Marginal VFR   IFR   Intensive IFR   Very Intensive IFR
Visi :
Ceiling :
>= 8 km
>= 3000ft
5 to 8 km
1000 to 3000 ft
1500m to 5 km
500 to 1000 ft
800 to 1500m
200 to 500 ft
< 800m
< 200 ft
Symbols :   Thunderstorms  Fog  Heavy snow  Heavy precipitations  Wind > 20 kt
SIGMETs :     Misc.  Thunderstorms  Icing  Turbulence  Mountain Waves  Volcanic Ashes







- Airport Elevation : 65 ft
- IATA code : PIK
- Download approach charts


EGPK - Glasgow Prestwick

CURRENT METAR :
  • 251350Z 28006KT 9999 FEW020 20/14 Q1022

EXPIRED METARs :
  • 251320Z 28006KT 9999 FEW020 19/14 Q1022
  • 251250Z 27008KT 9999 FEW020 21/14 Q1022
  • 251220Z 28004KT 9999 FEW020 20/15 Q1023
  • 251150Z 29004KT 260V330 9999 FEW020 18/14 Q1023
  • 251120Z 28006KT 9999 6000W PRFG FEW010 17/13 Q1023

TAF TAF EGPK
Valid from the 25 at 12:00 until the 26 at 12:00 UTC


251103Z 2512/2612 24006KT 9999 FEW010
PROB30
TEMPO 2512/2514 6000
BECMG 2609/2612 15012KT
No reported NOTAMs for that airfield.



MET'MAP, your aeronautical weather chart ! - Copyright ORBIFLY December 2007 - Disclaimer

ORBIFLY MET'MAP TEAM :

Programming & Development : Alexandra Zaïnal
Concept & Development : Baudouin d'Aumeries
Co-Development & Prog : Marc-Olivier Méhu
Technical & hardware support : Manuel Goepfert

Contact : metmap@orbifly.com




SOURCES & CREDITS :

   NOAA